Time;durP1;ratioP1;P1;durP2;ratioP2;P2;SDS_P1;SDS_P2;PMS_P1;PMS_P2;Temp;Humidity;BMP_temperature;BMP_pressure;BME280_temperature;BME280_humidity;BME280_pressure;Samples;Min_cycle;Max_cycle;Signal;HPM_P1;HPM_P2
2021/08/29 00:02:12;;;;;;;4.68;1.80;;;;;;;16.86;60.79;98274.88;5057125;28;20029;-60
2021/08/29 00:04:38;;;;;;;4.70;1.85;;;;;;;16.99;60.68;98276.75;5052892;28;20087;-60
2021/08/29 00:07:03;;;;;;;4.97;1.88;;;;;;;17.05;60.85;98273.38;5056227;28;20157;-61
2021/08/29 00:09:29;;;;;;;5.60;2.05;;;;;;;17.07;61.17;98273.97;5078119;28;20036;-60
2021/08/29 00:11:54;;;;;;;4.93;2.00;;;;;;;17.07;61.07;98276.59;5060921;28;20036;-60
2021/08/29 00:14:20;;;;;;;4.75;1.88;;;;;;;16.85;61.24;98259.31;5060844;28;20039;-60
2021/08/29 00:16:45;;;;;;;5.05;2.10;;;;;;;16.82;61.87;98260.47;5055448;28;20037;-60
2021/08/29 00:19:10;;;;;;;4.38;1.60;;;;;;;16.87;61.45;98262.56;5061455;28;20033;-61
2021/08/29 00:21:36;;;;;;;8.48;1.83;;;;;;;16.90;61.57;98267.41;5058381;28;20139;-60
2021/08/29 00:24:01;;;;;;;4.65;1.90;;;;;;;16.86;61.79;98266.97;5056306;28;20033;-61
2021/08/29 00:26:27;;;;;;;4.72;1.80;;;;;;;16.85;60.90;98265.38;5062009;28;20654;-60
2021/08/29 00:28:53;;;;;;;4.72;1.80;;;;;;;16.79;61.35;98267.91;5056998;28;20080;-60
2021/08/29 00:31:18;;;;;;;4.55;1.80;;;;;;;16.71;61.36;98267.06;5057951;28;20040;-60
2021/08/29 00:33:43;;;;;;;4.47;1.52;;;;;;;16.79;61.04;98266.09;5054320;28;20040;-61
2021/08/29 00:36:09;;;;;;;4.10;1.70;;;;;;;16.84;61.04;98274.25;5057077;28;20029;-60
2021/08/29 00:38:34;;;;;;;4.82;1.70;;;;;;;16.57;61.92;98270.59;5055147;28;20479;-60
2021/08/29 00:41:00;;;;;;;4.38;1.65;;;;;;;16.41;62.17;98276.13;5059423;28;20024;-59
2021/08/29 00:43:25;;;;;;;4.40;2.00;;;;;;;16.19;62.62;98244.72;5052115;28;20835;-61
2021/08/29 00:45:54;;;;;;;5.07;1.90;;;;;;;16.51;62.16;98271.38;5061051;28;20445;-59
2021/08/29 00:48:20;;;;;;;4.70;1.70;;;;;;;16.52;61.50;98267.78;5055213;28;20115;-60
2021/08/29 00:50:46;;;;;;;5.53;1.67;;;;;;;16.27;60.82;98243.75;5073072;28;20132;-60
2021/08/29 00:53:16;;;;;;;5.57;1.70;;;;;;;16.49;60.58;98281.25;5058011;28;20565;-60
2021/08/29 00:55:42;;;;;;;4.45;1.73;;;;;;;16.52;61.07;98268.56;5060822;28;20036;-60
2021/08/29 00:58:07;;;;;;;4.43;1.63;;;;;;;16.48;61.26;98266.50;5056264;28;20082;-60
2021/08/29 01:00:34;;;;;;;5.45;1.65;;;;;;;16.63;61.23;98250.66;5057254;28;20430;-61
2021/08/29 01:03:00;;;;;;;4.38;1.70;;;;;;;16.51;61.24;98260.88;5067096;28;20035;-59
2021/08/29 01:06:00;;;;;;;5.00;1.80;;;;;;;16.47;61.50;98275.41;5056593;28;20392;-60
2021/08/29 01:08:29;;;;;;;5.55;2.10;;;;;;;16.13;62.28;98272.50;5056580;28;20021;-61
2021/08/29 01:10:57;;;;;;;5.80;2.15;;;;;;;16.12;63.09;98270.06;5053468;28;20033;-59
2021/08/29 01:13:33;;;;;;;4.40;1.70;;;;;;;16.22;62.79;98261.88;5058241;28;20815;-60
2021/08/29 01:16:06;;;;;;;4.43;1.85;;;;;;;16.05;63.51;98261.34;5072400;28;20156;-60
2021/08/29 01:18:33;;;;;;;4.40;1.80;;;;;;;16.06;62.84;98271.66;5061685;28;20025;-60
2021/08/29 01:21:02;;;;;;;5.18;1.80;;;;;;;16.14;62.00;98266.25;5056792;28;20033;-60
2021/08/29 01:23:29;;;;;;;5.10;1.97;;;;;;;15.88;62.78;98273.88;5059408;28;20052;-61
2021/08/29 01:26:03;;;;;;;3.90;1.60;;;;;;;15.99;62.91;98259.44;5070866;28;20036;-61
2021/08/29 01:28:48;;;;;;;4.63;1.70;;;;;;;16.12;62.52;98259.59;5057442;28;20037;-61
2021/08/29 01:31:13;;;;;;;5.82;1.55;;;;;;;16.21;62.46;98255.00;5060908;28;20070;-61
2021/08/29 01:33:39;;;;;;;4.50;1.70;;;;;;;16.28;62.20;98261.09;5056961;28;20036;-60
2021/08/29 01:36:04;;;;;;;5.25;1.70;;;;;;;16.25;62.43;98270.19;5076863;28;20028;-60
2021/08/29 01:38:30;;;;;;;3.80;1.52;;;;;;;16.18;62.48;98261.44;5058843;28;20024;-60
2021/08/29 01:40:55;;;;;;;4.40;1.50;;;;;;;16.21;62.81;98274.19;5058000;28;20028;-60
2021/08/29 01:43:21;;;;;;;4.43;1.73;;;;;;;15.80;63.30;98238.09;5054661;28;20107;-61
2021/08/29 01:45:47;;;;;;;4.50;1.52;;;;;;;16.04;60.34;98273.63;5060607;28;21316;-61
2021/08/29 01:48:12;;;;;;;4.05;1.42;;;;;;;15.92;59.63;98247.09;5055390;28;20032;-60
2021/08/29 01:50:38;;;;;;;4.10;1.80;;;;;;;16.08;60.76;98274.06;5062404;28;20029;-60
2021/08/29 01:53:04;;;;;;;5.63;1.58;;;;;;;15.95;61.32;98275.56;5055627;28;20032;-61
2021/08/29 01:55:29;;;;;;;4.20;1.55;;;;;;;16.05;61.23;98285.75;5068629;28;20039;-60
2021/08/29 01:57:55;;;;;;;4.63;1.70;;;;;;;16.18;59.92;98274.56;5059908;28;20028;-60
2021/08/29 02:00:20;;;;;;;4.32;1.30;;;;;;;16.04;59.36;98252.63;5052591;28;20064;-61
2021/08/29 02:02:46;;;;;;;4.82;1.40;;;;;;;16.29;59.85;98275.88;5052160;28;20071;-60
2021/08/29 02:05:11;;;;;;;3.97;1.50;;;;;;;16.44;59.53;98283.66;5063548;28;20029;-60
2021/08/29 02:07:42;;;;;;;3.58;1.30;;;;;;;16.45;58.90;98272.97;5043890;28;20500;-61
2021/08/29 02:10:10;;;;;;;4.45;1.40;;;;;;;16.37;59.03;98253.91;5056475;28;20483;-60
2021/08/29 02:12:50;;;;;;;4.22;1.45;;;;;;;16.55;58.60;98272.63;5058128;28;20028;-60
2021/08/29 02:15:30;;;;;;;4.32;1.33;;;;;;;16.65;58.35;98275.72;5045469;28;20032;-61
2021/08/29 02:17:57;;;;;;;4.13;1.50;;;;;;;16.50;59.41;98277.63;5071931;28;20536;-61
2021/08/29 02:20:25;;;;;;;3.25;1.30;;;;;;;16.27;60.69;98283.09;5054663;28;20132;-60
2021/08/29 02:22:51;;;;;;;4.65;1.70;;;;;;;16.05;61.01;98254.28;5077616;28;20032;-61
2021/08/29 02:25:16;;;;;;;5.93;2.10;;;;;;;16.29;60.67;98286.34;5064259;28;20063;-59
2021/08/29 02:27:42;;;;;;;6.55;1.65;;;;;;;16.25;60.65;98279.88;5061656;28;20495;-60
2021/08/29 02:30:09;;;;;;;4.20;1.70;;;;;;;16.14;61.42;98282.00;5071641;28;20025;-62
2021/08/29 02:32:37;;;;;;;5.90;1.70;;;;;;;16.19;61.77;98289.31;5056246;28;20461;-61
2021/08/29 02:35:03;;;;;;;5.05;1.73;;;;;;;16.02;61.51;98285.31;5059620;28;20111;-61
2021/08/29 02:37:30;;;;;;;4.45;1.77;;;;;;;16.11;61.70;98292.03;5059360;28;20043;-61
2021/08/29 02:39:57;;;;;;;4.75;1.73;;;;;;;16.16;61.37;98299.38;5062776;28;20669;-60
2021/08/29 02:42:23;;;;;;;4.35;1.70;;;;;;;16.20;61.54;98305.84;5062246;28;20037;-61
2021/08/29 02:44:48;;;;;;;3.90;1.60;;;;;;;16.10;61.65;98296.50;5055865;28;20031;-60
2021/08/29 02:47:14;;;;;;;4.93;1.88;;;;;;;15.97;61.54;98295.53;5062170;28;20058;-60
2021/08/29 02:49:39;;;;;;;3.80;1.50;;;;;;;16.05;61.88;98298.84;5064012;28;20032;-61
2021/08/29 02:52:05;;;;;;;4.78;1.80;;;;;;;16.12;61.47;98317.28;5050868;28;20021;-59
2021/08/29 02:54:33;;;;;;;4.38;1.70;;;;;;;16.00;61.99;98313.53;5053871;28;20312;-61
2021/08/29 02:57:00;;;;;;;5.13;1.60;;;;;;;15.81;62.66;98281.69;5062417;28;20368;-61
2021/08/29 02:59:26;;;;;;;4.30;1.52;;;;;;;16.00;63.27;98309.09;5056634;28;20027;-61
2021/08/29 03:01:51;;;;;;;3.90;1.60;;;;;;;15.95;63.07;98319.31;5061749;28;20028;-61
2021/08/29 03:04:17;;;;;;;4.72;1.70;;;;;;;15.93;63.57;98318.69;5057463;28;20548;-60
2021/08/29 03:06:42;;;;;;;4.53;1.90;;;;;;;15.62;64.15;98311.06;5059181;28;20455;-61
2021/08/29 03:09:08;;;;;;;3.97;1.73;;;;;;;15.63;64.12;98297.78;5059011;28;20487;-60
2021/08/29 03:11:33;;;;;;;4.88;2.15;;;;;;;15.66;64.09;98307.06;5053920;28;20104;-61
2021/08/29 03:13:59;;;;;;;4.78;1.98;;;;;;;15.73;64.10;98307.97;5061048;28;20025;-60
2021/08/29 03:16:25;;;;;;;4.30;2.10;;;;;;;15.74;64.45;98309.63;5059043;28;20424;-60
2021/08/29 03:18:51;;;;;;;6.63;1.88;;;;;;;15.62;64.24;98309.25;5063188;28;20090;-60
2021/08/29 03:21:16;;;;;;;5.80;2.17;;;;;;;15.62;64.41;98298.78;5055462;28;20141;-60
2021/08/29 03:23:42;;;;;;;4.72;2.13;;;;;;;15.72;64.35;98299.31;5061881;28;20489;-61
2021/08/29 03:26:07;;;;;;;5.13;1.95;;;;;;;15.58;64.43;98303.56;5060550;28;20449;-62
2021/08/29 03:28:33;;;;;;;4.57;1.90;;;;;;;15.48;65.20;98289.97;5064071;28;20025;-61
2021/08/29 03:30:58;;;;;;;4.80;1.90;;;;;;;15.63;64.49;98299.59;5060824;28;20104;-61
2021/08/29 03:33:24;;;;;;;5.88;1.80;;;;;;;15.55;65.21;98297.88;5057093;28;20041;-61
2021/08/29 03:35:51;;;;;;;4.28;2.00;;;;;;;15.49;64.86;98288.16;5057362;28;20056;-61
2021/08/29 03:38:20;;;;;;;5.57;1.98;;;;;;;15.32;64.95;98263.97;5061043;28;20552;-62
2021/08/29 03:40:50;;;;;;;4.95;2.05;;;;;;;15.46;65.59;98288.50;5039216;28;20112;-61
2021/08/29 03:43:15;;;;;;;5.40;2.20;;;;;;;15.42;65.29;98280.19;5059728;28;20028;-61
2021/08/29 03:45:41;;;;;;;5.15;2.00;;;;;;;15.32;65.38;98271.84;5060642;28;20035;-61
2021/08/29 03:48:09;;;;;;;4.53;2.00;;;;;;;15.38;65.53;98271.09;5057546;28;20047;-61
2021/08/29 03:50:35;;;;;;;6.57;2.17;;;;;;;15.44;65.06;98282.66;5059280;28;20031;-61
2021/08/29 03:53:02;;;;;;;5.22;2.20;;;;;;;15.46;65.71;98289.34;5060558;28;20032;-61
2021/08/29 03:55:28;;;;;;;4.55;1.92;;;;;;;15.38;66.22;98286.81;5054062;28;20680;-61
2021/08/29 03:57:57;;;;;;;6.40;1.80;;;;;;;15.44;65.92;98293.97;5061571;28;20027;-62
2021/08/29 04:00:24;;;;;;;4.40;1.92;;;;;;;15.40;65.93;98308.41;5054771;28;20037;-60
2021/08/29 04:02:50;;;;;;;4.70;2.10;;;;;;;15.34;65.83;98302.09;5058577;28;20032;-61
2021/08/29 04:05:16;;;;;;;4.82;2.13;;;;;;;15.34;66.27;98304.69;5057458;28;20033;-61
2021/08/29 04:07:43;;;;;;;5.32;2.08;;;;;;;15.38;66.25;98302.53;5056232;28;20051;-60
2021/08/29 04:10:09;;;;;;;4.85;2.15;;;;;;;15.27;66.46;98293.31;5058019;28;20032;-60
2021/08/29 04:12:37;;;;;;;5.90;2.50;;;;;;;15.14;66.77;98285.31;5056122;28;20031;-61
2021/08/29 04:15:03;;;;;;;6.32;2.20;;;;;;;15.31;66.52;98293.78;5056481;28;20024;-61
2021/08/29 04:17:30;;;;;;;7.78;2.67;;;;;;;15.09;66.31;98249.19;5058883;28;20031;-60
2021/08/29 04:19:56;;;;;;;5.13;2.47;;;;;;;15.25;66.54;98295.31;5060069;28;20122;-60
2021/08/29 04:22:21;;;;;;;5.03;2.45;;;;;;;15.12;67.60;98301.19;5076772;28;20114;-61
2021/08/29 04:24:47;;;;;;;5.65;2.30;;;;;;;15.17;67.28;98306.72;5057272;28;20028;-59
2021/08/29 04:27:12;;;;;;;5.50;2.20;;;;;;;15.10;67.35;98305.81;5063990;28;20597;-61
2021/08/29 04:29:38;;;;;;;5.05;2.20;;;;;;;14.98;67.66;98294.97;5058256;28;20036;-61
2021/08/29 04:32:04;;;;;;;6.35;2.30;;;;;;;14.98;67.75;98302.00;5060495;28;20062;-61
2021/08/29 04:34:30;;;;;;;5.32;2.42;;;;;;;15.07;67.34;98297.50;5057050;28;20048;-61
2021/08/29 04:36:55;;;;;;;7.65;2.40;;;;;;;15.11;67.64;98299.59;5056592;28;20089;-60
2021/08/29 04:39:21;;;;;;;5.60;2.40;;;;;;;15.09;67.62;98298.94;5070456;28;20617;-61
2021/08/29 04:41:46;;;;;;;5.97;2.42;;;;;;;14.87;67.91;98265.81;5060137;28;20036;-62
2021/08/29 04:44:12;;;;;;;6.55;2.47;;;;;;;14.92;67.31;98297.50;5059350;28;20039;-61
2021/08/29 04:46:38;;;;;;;5.43;2.20;;;;;;;14.88;67.82;98307.53;5055870;28;20370;-60
2021/08/29 04:49:04;;;;;;;5.10;2.15;;;;;;;14.94;68.67;98301.56;5055743;28;20032;-61
2021/08/29 04:51:30;;;;;;;5.38;2.58;;;;;;;14.83;68.80;98270.59;5055335;28;20094;-61
2021/08/29 04:53:56;;;;;;;5.72;2.70;;;;;;;14.94;68.60;98293.69;5061089;28;20042;-61
2021/08/29 04:56:21;;;;;;;5.13;2.38;;;;;;;14.99;68.29;98293.19;5062273;28;20039;-61
2021/08/29 04:58:46;;;;;;;5.45;2.22;;;;;;;15.10;68.02;98302.38;5059228;28;20572;-61
2021/08/29 05:01:12;;;;;;;5.03;1.83;;;;;;;15.06;68.31;98288.00;5051033;28;20435;-61
2021/08/29 05:03:37;;;;;;;4.78;2.10;;;;;;;15.15;67.65;98295.59;5061063;28;20144;-61
2021/08/29 05:06:03;;;;;;;6.05;2.10;;;;;;;14.98;68.20;98274.00;5059472;28;20020;-61
2021/08/29 05:08:28;;;;;;;5.45;2.00;;;;;;;15.18;68.27;98297.84;5061849;28;20400;-61
2021/08/29 05:10:53;;;;;;;5.43;2.85;;;;;;;15.22;67.98;98302.72;5055125;28;20025;-60
2021/08/29 05:13:19;;;;;;;5.53;2.05;;;;;;;14.86;68.18;98266.78;5061057;28;20040;-61
2021/08/29 05:15:44;;;;;;;4.70;2.25;;;;;;;15.06;68.28;98295.88;5060807;28;20115;-61
2021/08/29 05:18:10;;;;;;;4.97;2.35;;;;;;;15.00;68.37;98284.31;5058923;28;20024;-61
2021/08/29 05:20:35;;;;;;;5.50;2.10;;;;;;;15.01;68.30;98306.09;5063789;28;20040;-62
2021/08/29 05:23:01;;;;;;;5.03;2.13;;;;;;;15.09;69.15;98303.38;5056204;28;20194;-61
2021/08/29 05:25:27;;;;;;;5.93;2.33;;;;;;;15.16;68.67;98312.94;5059799;28;20043;-61
2021/08/29 05:27:53;;;;;;;5.85;2.25;;;;;;;15.21;68.96;98307.16;5062431;28;20024;-61
2021/08/29 05:30:18;;;;;;;5.68;2.10;;;;;;;15.20;68.63;98305.53;5066540;28;20064;-61
2021/08/29 05:32:44;;;;;;;5.57;1.95;;;;;;;15.17;68.92;98295.44;5073555;28;20056;-61
2021/08/29 05:35:09;;;;;;;7.03;2.03;;;;;;;15.02;69.06;98274.47;5058004;28;20036;-60
2021/08/29 05:37:35;;;;;;;4.57;1.85;;;;;;;15.19;69.63;98304.72;5064618;28;20028;-61
2021/08/29 05:40:00;;;;;;;5.45;1.70;;;;;;;15.28;69.21;98302.81;5063493;28;20025;-61
2021/08/29 05:42:25;;;;;;;5.07;2.00;;;;;;;15.36;69.29;98307.16;5062292;28;20055;-60
2021/08/29 05:44:51;;;;;;;4.50;1.90;;;;;;;15.22;69.03;98303.53;5057446;28;20059;-61
2021/08/29 05:47:18;;;;;;;4.07;1.60;;;;;;;15.23;68.33;98305.16;5063909;28;20032;-61
2021/08/29 05:49:43;;;;;;;4.75;1.73;;;;;;;15.03;68.80;98272.69;5074872;28;20115;-59
2021/08/29 05:52:09;;;;;;;5.68;1.77;;;;;;;15.19;68.93;98296.88;5061262;28;20111;-61
2021/08/29 05:54:34;;;;;;;5.00;1.70;;;;;;;15.30;69.12;98300.81;5062556;28;20487;-60
2021/08/29 05:56:59;;;;;;;7.88;1.95;;;;;;;15.29;69.02;98295.78;5062315;28;20024;-60
2021/08/29 05:59:25;;;;;;;5.50;1.90;;;;;;;15.24;69.46;98296.34;5064517;28;20032;-61
2021/08/29 06:01:50;;;;;;;6.80;2.00;;;;;;;15.07;70.04;98264.25;5063067;28;20030;-60
2021/08/29 06:04:15;;;;;;;4.65;1.85;;;;;;;15.28;69.78;98305.44;5064325;28;20043;-61
2021/08/29 06:06:41;;;;;;;5.05;1.70;;;;;;;15.29;70.13;98293.16;5060527;28;20582;-61
2021/08/29 06:09:06;;;;;;;4.60;1.80;;;;;;;15.32;70.28;98298.03;5062388;28;20037;-59
2021/08/29 06:11:32;;;;;;;4.63;2.00;;;;;;;15.35;69.91;98300.25;5063517;28;20029;-59
2021/08/29 06:13:58;;;;;;;6.10;2.20;;;;;;;15.35;69.69;98301.09;5060765;28;20501;-60
2021/08/29 06:16:24;;;;;;;6.50;1.83;;;;;;;15.36;69.41;98294.03;5063411;28;20024;-61
2021/08/29 06:18:50;;;;;;;5.55;1.63;;;;;;;15.45;69.32;98295.56;5062444;28;20395;-60
2021/08/29 06:21:15;;;;;;;4.80;1.63;;;;;;;15.48;69.24;98289.13;5049017;28;20036;-60
2021/08/29 06:23:41;;;;;;;3.80;1.60;;;;;;;15.56;68.89;98292.47;5051727;28;20028;-60
2021/08/29 06:26:06;;;;;;;4.05;1.52;;;;;;;15.62;68.31;98293.53;5048261;28;20059;-61
2021/08/29 06:28:32;;;;;;;5.32;1.77;;;;;;;15.55;68.43;98276.91;5048639;28;20033;-61
2021/08/29 06:30:57;;;;;;;4.25;1.63;;;;;;;15.53;68.73;98281.53;5048019;28;20163;-61
2021/08/29 06:33:22;;;;;;;5.32;2.17;;;;;;;15.47;69.49;98285.72;5049101;28;20064;-60
2021/08/29 06:35:48;;;;;;;4.32;1.70;;;;;;;15.50;69.34;98282.72;5052246;28;20797;-60
2021/08/29 06:38:13;;;;;;;3.92;1.60;;;;;;;15.53;69.20;98282.38;5053878;28;20090;-60
2021/08/29 06:40:39;;;;;;;4.10;1.70;;;;;;;15.50;69.70;98282.72;5049006;28;20596;-61
2021/08/29 06:43:04;;;;;;;4.10;1.58;;;;;;;15.19;69.76;98246.31;5049473;28;20048;-60
2021/08/29 06:45:29;;;;;;;3.63;1.42;;;;;;;15.47;69.98;98283.09;5056038;28;20103;-60
2021/08/29 06:47:55;;;;;;;3.28;1.20;;;;;;;15.39;68.41;98277.97;5048179;28;20039;-60
2021/08/29 06:50:20;;;;;;;3.90;1.00;;;;;;;15.47;67.75;98287.53;5053319;28;20489;-60
2021/08/29 06:52:46;;;;;;;4.03;1.23;;;;;;;15.33;68.65;98260.34;5070199;28;20036;-60
2021/08/29 06:55:11;;;;;;;4.15;1.40;;;;;;;15.60;68.45;98292.91;5045868;28;20517;-60
2021/08/29 06:57:37;;;;;;;4.70;1.30;;;;;;;15.70;68.49;98288.19;5055771;28;20491;-60
2021/08/29 07:00:03;;;;;;;4.15;1.48;;;;;;;15.57;69.03;98249.56;5058565;28;20033;-60
2021/08/29 07:02:29;;;;;;;3.22;1.08;;;;;;;15.75;66.88;98280.63;5059996;28;20025;-60
2021/08/29 07:04:54;;;;;;;4.13;1.08;;;;;;;15.58;66.79;98252.97;5052235;28;20016;-60
2021/08/29 07:07:20;;;;;;;3.33;0.98;;;;;;;15.76;66.07;98273.56;5060836;28;20131;-60
2021/08/29 07:09:45;;;;;;;2.80;0.93;;;;;;;15.80;65.97;98287.91;5056546;28;20396;-60
2021/08/29 07:12:11;;;;;;;3.08;1.02;;;;;;;15.73;67.71;98292.25;5052045;28;21030;-60
2021/08/29 07:14:37;;;;;;;2.85;1.08;;;;;;;15.87;67.96;98283.56;5061945;28;20580;-61
2021/08/29 07:17:03;;;;;;;3.08;1.10;;;;;;;15.89;68.57;98280.75;5054308;28;20080;-61
2021/08/29 07:19:28;;;;;;;3.50;1.23;;;;;;;15.75;68.48;98243.94;5056208;28;20143;-60
2021/08/29 07:21:54;;;;;;;3.03;0.98;;;;;;;15.98;68.13;98279.63;5054948;28;20072;-60
2021/08/29 07:24:19;;;;;;;3.28;1.08;;;;;;;15.95;66.83;98287.84;5069653;28;20381;-60
2021/08/29 07:26:45;;;;;;;3.50;1.17;;;;;;;15.93;66.79;98285.44;5054314;28;20536;-60
2021/08/29 07:29:10;;;;;;;6.65;3.65;;;;;;;15.95;63.24;98280.81;5050842;28;20021;-60
2021/08/29 07:31:36;;;;;;;5.75;2.63;;;;;;;15.90;63.07;98279.75;5052402;28;20029;-60
2021/08/29 07:34:02;;;;;;;6.50;3.25;;;;;;;15.85;65.06;98242.81;5052111;28;20586;-61
2021/08/29 07:36:27;;;;;;;2.75;0.90;;;;;;;15.76;62.48;98237.66;5050266;28;20124;-60
2021/08/29 07:38:52;;;;;;;3.65;1.27;;;;;;;16.01;63.37;98275.81;5052620;28;20086;-60
2021/08/29 07:41:18;;;;;;;4.93;1.20;;;;;;;15.90;62.54;98267.47;5052389;28;20028;-60
2021/08/29 07:43:43;;;;;;;2.75;0.93;;;;;;;15.69;61.31;98226.28;5052734;28;20097;-60
2021/08/29 07:46:09;;;;;;;3.22;0.88;;;;;;;16.04;62.68;98268.38;5056687;28;20032;-60
2021/08/29 07:48:34;;;;;;;3.55;1.15;;;;;;;16.00;62.34;98263.72;5055851;28;20483;-60
2021/08/29 07:51:00;;;;;;;2.35;0.70;;;;;;;15.90;61.51;98236.00;5060500;28;20534;-60
2021/08/29 07:53:25;;;;;;;2.65;0.70;;;;;;;16.10;58.48;98259.78;5052994;28;20033;-61
2021/08/29 07:55:51;;;;;;;2.25;0.52;;;;;;;16.16;58.78;98255.56;5051565;28;20467;-60
2021/08/29 07:58:18;;;;;;;1.90;0.70;;;;;;;16.25;59.90;98258.88;5047838;28;20106;-59
2021/08/29 08:00:43;;;;;;;3.03;0.70;;;;;;;15.97;57.39;98227.38;5046845;28;20501;-60
2021/08/29 08:03:09;;;;;;;2.28;0.70;;;;;;;15.94;60.84;98224.13;5063117;28;20424;-60
2021/08/29 08:05:34;;;;;;;2.10;0.70;;;;;;;16.23;59.17;98259.06;5049595;28;20040;-60
2021/08/29 08:08:00;;;;;;;1.70;0.40;;;;;;;16.11;55.93;98256.13;5049396;28;20141;-60
2021/08/29 08:10:27;;;;;;;1.45;0.50;;;;;;;16.20;58.64;98258.63;5071811;28;20032;-58
2021/08/29 08:12:53;;;;;;;1.70;0.50;;;;;;;16.23;56.60;98256.44;5059801;28;20036;-60
2021/08/29 08:15:18;;;;;;;3.20;0.80;;;;;;;16.29;59.83;98249.63;5057467;28;20068;-61
2021/08/29 08:17:44;;;;;;;1.90;0.60;;;;;;;16.25;58.85;98264.94;5068364;28;20047;-60
2021/08/29 08:20:10;;;;;;;1.85;0.52;;;;;;;16.28;59.71;98259.31;5058489;28;20474;-61
2021/08/29 08:22:35;;;;;;;2.20;0.60;;;;;;;16.30;60.49;98262.56;5060370;28;20039;-59
2021/08/29 08:25:00;;;;;;;1.83;0.57;;;;;;;16.09;61.45;98223.25;5058760;28;20418;-60
2021/08/29 08:27:26;;;;;;;3.72;0.70;;;;;;;16.31;61.04;98255.50;5052260;28;20451;-60
2021/08/29 08:29:51;;;;;;;1.73;0.50;;;;;;;16.37;61.28;98267.03;5053969;28;20030;-60
2021/08/29 08:32:17;;;;;;;2.95;0.85;;;;;;;16.32;60.01;98255.31;5057759;28;20040;-60
2021/08/29 08:34:42;;;;;;;2.35;0.70;;;;;;;16.45;59.60;98265.09;5052372;28;20060;-61
2021/08/29 08:37:08;;;;;;;2.03;0.63;;;;;;;18.74;54.69;98252.38;5054404;28;20075;-60
2021/08/29 08:39:33;;;;;;;2.05;0.70;;;;;;;20.67;47.61;98256.59;5055682;28;20035;-61
2021/08/29 08:41:59;;;;;;;3.22;0.73;;;;;;;21.64;43.75;98218.84;5060508;28;20632;-60
2021/08/29 08:44:24;;;;;;;1.60;0.40;;;;;;;22.67;41.27;98244.31;5053781;28;20081;-61
2021/08/29 08:46:51;;;;;;;1.75;0.40;;;;;;;22.63;40.83;98241.31;5052703;28;20025;-60
2021/08/29 08:49:19;;;;;;;1.38;0.43;;;;;;;22.20;41.11;98234.50;5053196;28;20020;-60
2021/08/29 08:51:46;;;;;;;1.90;0.45;;;;;;;21.45;41.74;98238.47;5067799;28;20761;-61
2021/08/29 08:54:13;;;;;;;2.03;0.60;;;;;;;20.27;44.58;98249.00;5052812;28;20051;-61
2021/08/29 08:56:38;;;;;;;1.40;0.50;;;;;;;19.31;45.61;98215.72;5056587;28;20032;-61
2021/08/29 08:59:05;;;;;;;1.92;0.55;;;;;;;19.50;46.20;98235.91;5049498;28;20039;-60
2021/08/29 09:01:31;;;;;;;1.98;0.47;;;;;;;19.29;47.91;98221.22;5053648;28;20511;-60
2021/08/29 09:03:57;;;;;;;2.55;0.60;;;;;;;19.31;46.21;98228.91;5058189;28;20742;-59
2021/08/29 09:06:22;;;;;;;1.35;0.43;;;;;;;19.20;46.27;98215.41;5052332;28;20097;-60
2021/08/29 09:08:48;;;;;;;1.42;0.40;;;;;;;19.30;46.49;98224.69;5055852;28;20032;-60
2021/08/29 09:11:13;;;;;;;1.88;0.50;;;;;;;19.31;45.10;98223.63;5059072;28;20078;-60
2021/08/29 09:13:48;;;;;;;0.82;0.40;;;;;;;19.21;46.18;98232.81;5057514;28;20483;-60
2021/08/29 09:16:19;;;;;;;3.58;0.65;;;;;;;19.39;45.71;98212.88;5057931;28;20123;-60
2021/08/29 09:18:48;;;;;;;3.22;0.80;;;;;;;19.32;45.23;98191.00;5054609;28;20067;-62
2021/08/29 09:21:27;;;;;;;1.70;0.50;;;;;;;19.46;44.92;98207.53;5068346;28;20032;-61
2021/08/29 09:23:54;;;;;;;3.53;0.60;;;;;;;19.53;44.59;98203.88;5059685;28;20029;-62
2021/08/29 09:26:21;;;;;;;1.67;0.50;;;;;;;19.53;44.60;98206.50;5057675;28;20487;-61
2021/08/29 09:28:48;;;;;;;1.75;0.50;;;;;;;19.48;44.29;98210.78;5056055;28;20472;-61
2021/08/29 09:31:14;;;;;;;1.63;0.40;;;;;;;19.62;44.63;98207.03;5052614;28;21083;-62
2021/08/29 09:33:40;;;;;;;1.42;0.30;;;;;;;19.85;44.75;98205.72;5056128;28;20041;-62
2021/08/29 09:36:06;;;;;;;1.80;0.52;;;;;;;19.93;44.56;98202.78;5054451;28;20035;-61
2021/08/29 09:38:42;;;;;;;1.55;0.40;;;;;;;20.04;45.36;98202.13;5056098;28;20136;-61
2021/08/29 09:41:27;;;;;;;1.17;0.40;;;;;;;20.17;45.00;98195.91;5077240;28;20044;-62
2021/08/29 09:43:53;;;;;;;1.90;0.60;;;;;;;20.27;46.08;98185.66;5056800;28;20109;-62
2021/08/29 09:46:21;;;;;;;2.05;0.40;;;;;;;20.26;45.37;98181.41;5059521;28;20069;-61
2021/08/29 09:48:47;;;;;;;0.88;0.30;;;;;;;20.25;45.44;98184.28;5052915;28;20155;-62
2021/08/29 09:51:14;;;;;;;1.40;0.50;;;;;;;20.29;46.01;98186.25;5061042;28;20861;-62
2021/08/29 09:53:43;;;;;;;2.63;0.80;;;;;;;20.44;46.33;98177.97;5053466;28;21069;-63
2021/08/29 09:56:23;;;;;;;2.97;0.90;;;;;;;20.55;46.47;98171.97;5048061;28;20128;-62
2021/08/29 09:58:49;;;;;;;5.45;2.67;;;;;;;20.61;46.08;98137.81;5052265;28;20039;-62
2021/08/29 10:01:18;;;;;;;4.50;1.67;;;;;;;21.08;45.84;98172.38;5054839;28;20439;-62
2021/08/29 10:03:45;;;;;;;5.07;1.88;;;;;;;21.03;44.84;98161.72;5060901;28;20506;-63
2021/08/29 10:06:27;;;;;;;12.55;11.30;;;;;;;21.11;44.75;98138.38;5060174;28;20552;-62
2021/08/29 10:08:59;;;;;;;99.20;89.90;;;;;;;21.33;44.00;98164.34;5057562;28;20777;-63
2021/08/29 10:11:27;;;;;;;117.07;104.95;;;;;;;21.35;44.50;98162.25;5060947;28;20032;-63
2021/08/29 10:13:54;;;;;;;15.95;11.00;;;;;;;21.25;44.15;98157.53;5043784;28;20410;-62
2021/08/29 10:16:22;;;;;;;4.07;1.30;;;;;;;21.13;43.68;98168.03;5042316;28;20033;-63
2021/08/29 10:18:50;;;;;;;13.82;9.15;;;;;;;20.97;46.05;98158.09;5061351;28;20029;-62
2021/08/29 10:21:22;;;;;;;105.15;86.90;;;;;;;20.85;46.28;98155.41;5060530;28;20039;-63
2021/08/29 10:23:50;;;;;;;62.28;50.80;;;;;;;20.85;46.20;98157.25;5056329;28;20297;-62
2021/08/29 10:26:18;;;;;;;49.80;37.63;;;;;;;20.76;45.97;98150.66;5059708;28;20111;-63
2021/08/29 10:28:47;;;;;;;27.45;24.55;;;;;;;20.64;48.16;98124.16;5057169;28;20603;-62
2021/08/29 10:31:15;;;;;;;20.63;17.35;;;;;;;20.67;46.45;98123.72;5054905;28;20028;-63
2021/08/29 10:33:47;;;;;;;23.90;20.67;;;;;;;20.86;46.73;98153.56;5060100;28;20558;-63
2021/08/29 10:36:17;;;;;;;23.33;19.63;;;;;;;20.84;45.23;98148.50;5056112;28;20032;-63
2021/08/29 10:38:44;;;;;;;51.58;40.25;;;;;;;20.83;45.22;98144.25;5058592;28;20059;-63
2021/08/29 10:41:10;;;;;;;6.65;3.80;;;;;;;20.70;46.02;98123.28;5062255;28;20112;-62
2021/08/29 10:43:39;;;;;;;3.22;1.15;;;;;;;20.92;44.95;98128.91;5062382;28;20037;-62
2021/08/29 10:46:07;;;;;;;3.43;1.20;;;;;;;20.97;45.93;98117.66;5054308;28;20063;-63
2021/08/29 10:48:34;;;;;;;6.50;5.32;;;;;;;21.09;45.44;98124.59;5057159;28;20279;-62
2021/08/29 10:51:00;;;;;;;3.60;1.00;;;;;;;21.38;44.40;98135.38;5057284;28;20048;-62
2021/08/29 10:53:32;;;;;;;2.60;0.90;;;;;;;21.36;43.55;98131.38;5055830;28;20526;-62
2021/08/29 10:56:16;;;;;;;3.63;1.00;;;;;;;21.30;45.30;98136.50;5058377;28;20033;-62
2021/08/29 10:58:42;;;;;;;2.83;0.90;;;;;;;21.10;44.83;98112.19;5060689;28;20040;-62
2021/08/29 11:01:35;;;;;;;2.70;0.85;;;;;;;21.56;44.72;98129.25;5076164;28;20170;-62
2021/08/29 11:04:19;;;;;;;3.28;1.20;;;;;;;21.72;43.14;98130.41;5059306;28;20475;-62
2021/08/29 11:06:47;;;;;;;3.75;1.13;;;;;;;21.74;44.77;98132.81;5063744;28;20524;-62
2021/08/29 11:09:31;;;;;;;4.43;0.90;;;;;;;21.83;42.87;98134.91;5057577;28;20561;-62
2021/08/29 11:11:57;;;;;;;3.55;1.10;;;;;;;21.91;42.49;98120.53;5056800;28;20021;-62
2021/08/29 11:14:53;;;;;;;2.33;0.63;;;;;;;21.81;42.33;98128.22;5062354;28;20044;-62
2021/08/29 11:17:22;;;;;;;2.55;0.80;;;;;;;21.47;43.27;98097.03;5054659;28;20048;-63
2021/08/29 11:19:55;;;;;;;2.72;0.98;;;;;;;21.60;42.99;98122.47;5068300;28;20035;-62
2021/08/29 11:22:25;;;;;;;2.95;1.02;;;;;;;21.57;44.45;98119.47;5058808;28;20040;-62
2021/08/29 11:24:56;;;;;;;2.28;0.80;;;;;;;21.79;44.16;98120.50;5058329;28;20048;-62
2021/08/29 11:27:33;;;;;;;5.85;2.53;;;;;;;21.71;43.56;98110.28;5062638;28;20012;-63
2021/08/29 11:29:59;;;;;;;5.10;1.10;;;;;;;21.79;43.25;98109.94;5069048;28;20051;-63
2021/08/29 11:32:40;;;;;;;5.10;0.90;;;;;;;21.88;42.44;98111.19;5060227;28;20475;-63